Terminal Aerodrome Forecast
Issued by NWS

Home | Current Version | Previous Version | Text Only | Print | Product List | Glossary On
Versions: 1 2 3 4 5 6 7 8 9 10 11 12 13 14 15 16 17 18 19 20 21 22 23 24 25 26 27 28 29 30
000
FTUS44 KBMX 292320
TAFTOI
TAF
KTOI 292320Z 3000/3024 08003KT P6SM FEW250
     FM301100 00000KT 5SM BR FEW008
     FM301400 16003KT P6SM FEW250
     FM301800 17007KT P6SM SCT050=

USA.gov is the U.S. government's official web portal to all federal, state and local government web resources and services.